Time;durP1;ratioP1;P1;durP2;ratioP2;P2;SDS_P1;SDS_P2;PMS_P1;PMS_P2;Temp;Humidity;BMP_temperature;BMP_pressure;BME280_temperature;BME280_humidity;BME280_pressure;Samples;Min_cycle;Max_cycle;Signal;HPM_P1;HPM_P2
2022/03/20 00:01:05;;;;;;;;;70.25;55.50;9.20;29.80;;;;;;4976668;28;8803;-60
2022/03/20 00:03:32;;;;;;;;;68.00;55.00;9.10;29.70;;;;;;4974241;28;9446;-61
2022/03/20 00:05:58;;;;;;;;;75.00;59.00;8.80;29.90;;;;;;4954456;28;8848;-61
2022/03/20 00:08:24;;;;;;;;;69.25;57.75;8.70;30.30;;;;;;4972139;28;8898;-61
2022/03/20 00:10:53;;;;;;;;;71.00;56.75;8.90;29.80;;;;;;4976459;28;9498;-60
2022/03/20 00:13:21;;;;;;;;;69.75;54.00;9.10;29.80;;;;;;4976343;28;8763;-60
2022/03/20 00:15:50;;;;;;;;;74.25;58.25;8.90;29.90;;;;;;4976522;28;8783;-60
2022/03/20 00:18:20;;;;;;;;;67.00;54.00;9.00;29.80;;;;;;4976549;28;9478;-60
2022/03/20 00:21:04;;;;;;;;;70.25;57.25;9.20;29.80;;;;;;4976759;28;8771;-60
2022/03/20 00:23:30;;;;;;;;;70.75;57.25;9.30;29.50;;;;;;4970488;28;8920;-61
2022/03/20 00:25:56;;;;;;;;;68.50;56.25;9.40;29.40;;;;;;4968081;28;8884;-60
2022/03/20 00:28:25;;;;;;;;;69.25;54.75;9.50;29.50;;;;;;4976620;28;8788;-60
2022/03/20 00:30:51;;;;;;;;;66.50;54.00;9.30;29.40;;;;;;4970434;28;8797;-60
2022/03/20 00:33:17;;;;;;;;;60.00;49.00;9.20;29.80;;;;;;4961477;28;8782;-60
2022/03/20 00:35:43;;;;;;;;;63.75;51.00;9.30;29.70;;;;;;4965774;28;8769;-60
2022/03/20 00:38:09;;;;;;;;;70.00;54.50;9.10;29.50;;;;;;4956971;28;8804;-60
2022/03/20 00:40:36;;;;;;;;;74.00;58.00;9.20;29.90;;;;;;4963585;28;8801;-60
2022/03/20 00:43:06;;;;;;;;;69.00;55.50;9.10;29.90;;;;;;4967110;28;8782;-60
2022/03/20 00:45:33;;;;;;;;;73.25;58.50;9.10;30.00;;;;;;4959486;28;9525;-60
2022/03/20 00:48:00;;;;;;;;;63.50;51.75;9.00;29.80;;;;;;4958863;28;8788;-60
2022/03/20 00:50:26;;;;;;;;;67.50;55.00;8.40;30.20;;;;;;4966708;28;8812;-60
2022/03/20 00:52:51;;;;;;;;;67.00;55.00;8.60;30.40;;;;;;4956902;28;8863;-61
2022/03/20 00:55:17;;;;;;;;;60.00;47.00;8.70;30.30;;;;;;4945149;28;8928;-60
2022/03/20 00:57:43;;;;;;;;;65.25;53.25;8.90;30.00;;;;;;4962749;28;8773;-60
2022/03/20 01:00:09;;;;;;;;;67.25;54.50;9.00;30.00;;;;;;4958550;28;8887;-60
2022/03/20 01:02:39;;;;;;;;;66.50;56.00;9.10;29.90;;;;;;4965077;28;8814;-60
2022/03/20 01:05:06;;;;;;;;;65.50;53.75;8.90;30.00;;;;;;4975887;28;8860;-61
2022/03/20 01:07:32;;;;;;;;;59.25;49.00;8.90;30.00;;;;;;4976279;28;8809;-61
2022/03/20 01:09:59;;;;;;;;;64.75;53.25;8.80;30.00;;;;;;4975935;28;8774;-61
2022/03/20 01:12:26;;;;;;;;;65.00;52.50;8.70;30.10;;;;;;4975583;28;8786;-61
2022/03/20 01:14:51;;;;;;;;;61.00;50.75;8.70;30.20;;;;;;4975974;28;8766;-61
2022/03/20 01:17:17;;;;;;;;;58.00;49.50;8.70;30.50;;;;;;4975728;28;9463;-61
2022/03/20 01:19:43;;;;;;;;;57.25;46.75;8.50;30.50;;;;;;4975450;28;9616;-60
2022/03/20 01:22:09;;;;;;;;;62.75;49.75;8.10;30.90;;;;;;4975327;28;9524;-60
2022/03/20 01:24:34;;;;;;;;;48.25;41.50;8.20;31.40;;;;;;4975521;28;8820;-60
2022/03/20 01:27:00;;;;;;;;;58.25;48.00;8.40;31.10;;;;;;4975807;28;8860;-60
2022/03/20 01:29:27;;;;;;;;;57.50;50.00;8.60;30.50;;;;;;4975806;28;8783;-61
2022/03/20 01:31:53;;;;;;;;;50.00;43.00;8.60;30.50;;;;;;4976079;28;8785;-61
2022/03/20 01:34:18;;;;;;;;;57.50;46.50;8.60;30.50;;;;;;4975761;28;8770;-61
2022/03/20 01:36:45;;;;;;;;;57.50;46.75;8.70;30.00;;;;;;4975311;28;8809;-61
2022/03/20 01:39:10;;;;;;;;;48.75;42.50;8.60;30.30;;;;;;4975383;28;8900;-60
2022/03/20 01:41:37;;;;;;;;;47.75;42.00;8.50;31.60;;;;;;4975583;28;8912;-61
2022/03/20 01:44:03;;;;;;;;;48.25;42.50;8.60;30.30;;;;;;4975401;28;8762;-60
2022/03/20 01:46:31;;;;;;;;;48.00;42.00;8.50;30.20;;;;;;4975475;28;8789;-60
2022/03/20 01:48:57;;;;;;;;;52.25;44.50;8.40;30.30;;;;;;4975395;28;8837;-60
2022/03/20 01:52:10;;;;;;;;;50.75;43.00;8.40;30.70;;;;;;4975404;28;8762;-60
2022/03/20 01:54:13;;;;;;;;;47.50;43.00;8.40;30.20;;;;;;4975119;28;8786;-60
2022/03/20 01:56:49;;;;;;;;;48.00;41.75;8.40;30.80;;;;;;4975304;28;8763;-61
2022/03/20 01:59:16;;;;;;;;;38.25;36.25;8.20;30.90;;;;;;4975546;28;9224;-60
2022/03/20 02:01:42;;;;;;;;;38.50;37.00;8.20;31.20;;;;;;4975173;28;8782;-61
2022/03/20 02:04:15;;;;;;;;;46.25;39.00;7.80;31.30;;;;;;4975337;28;8755;-61
2022/03/20 02:06:42;;;;;;;;;48.25;43.75;8.10;31.30;;;;;;4975359;28;8832;-61
2022/03/20 02:09:12;;;;;;;;;47.00;42.00;8.20;30.60;;;;;;4975131;28;8774;-60
2022/03/20 02:11:37;;;;;;;;;52.75;45.50;8.20;31.90;;;;;;4975199;28;8774;-60
2022/03/20 02:14:05;;;;;;;;;41.75;39.25;8.20;30.60;;;;;;4975172;28;8844;-60
2022/03/20 02:16:31;;;;;;;;;43.50;40.25;8.30;30.70;;;;;;4975096;28;8788;-60
2022/03/20 02:18:57;;;;;;;;;49.00;43.75;8.30;30.70;;;;;;4975072;28;8812;-60
2022/03/20 02:21:55;;;;;;;;;45.50;40.50;8.00;31.90;;;;;;4975213;28;8813;-60
2022/03/20 02:24:36;;;;;;;;;44.25;38.75;7.80;31.30;;;;;;4915543;29;8982;-60
2022/03/20 02:27:12;;;;;;;;;42.00;35.50;7.80;31.40;;;;;;4915436;29;8790;-61
2022/03/20 02:29:39;;;;;;;;;34.00;32.00;8.10;31.20;;;;;;4915512;29;8966;-61
2022/03/20 02:32:06;;;;;;;;;32.25;29.00;8.20;31.00;;;;;;4918853;29;8806;-60
2022/03/20 02:34:33;;;;;;;;;41.25;39.75;8.20;30.50;;;;;;4918830;29;8787;-60
2022/03/20 02:37:01;;;;;;;;;42.00;38.00;8.10;30.40;;;;;;4918677;29;8803;-61
2022/03/20 02:39:28;;;;;;;;;34.00;31.75;7.80;30.90;;;;;;4918646;29;9475;-60
2022/03/20 02:41:55;;;;;;;;;42.25;37.75;7.90;30.90;;;;;;4918687;29;8795;-60
2022/03/20 02:45:04;;;;;;;;;44.75;38.00;8.00;30.80;;;;;;4918731;29;8775;-60
2022/03/20 02:47:44;;;;;;;;;38.50;35.75;8.10;30.30;;;;;;4911389;29;8760;-60
2022/03/20 02:50:12;;;;;;;;;26.50;20.75;7.90;30.60;;;;;;4918771;29;8874;-60
2022/03/20 02:52:48;;;;;;;;;41.25;37.50;7.70;31.50;;;;;;4918495;29;8915;-60
2022/03/20 02:55:22;;;;;;;;;39.75;38.00;7.80;30.70;;;;;;4918538;29;9496;-61
2022/03/20 02:57:49;;;;;;;;;43.50;36.25;7.60;31.00;;;;;;4916931;29;8795;-60
2022/03/20 03:00:21;;;;;;;;;42.00;36.75;7.80;31.00;;;;;;4943972;28;8811;-60
2022/03/20 03:02:48;;;;;;;;;38.25;35.75;7.70;30.90;;;;;;4958525;28;8814;-60
2022/03/20 03:05:16;;;;;;;;;41.00;38.50;8.00;30.70;;;;;;4958565;28;8783;-60
2022/03/20 03:13:16;;;;;;;;;39.00;38.25;8.10;30.00;;;;;;4958520;28;8776;-60
2022/03/20 03:15:42;;;;;;;;;37.50;35.25;7.80;30.10;;;;;;4958633;28;8768;-61
2022/03/20 03:18:09;;;;;;;;;37.00;35.25;7.80;30.90;;;;;;4958321;28;8898;-61
2022/03/20 03:20:35;;;;;;;;;39.00;38.00;7.90;30.30;;;;;;4958158;28;8800;-61
2022/03/20 03:23:02;;;;;;;;;38.75;35.50;8.10;30.00;;;;;;4958196;28;8792;-61
2022/03/20 03:25:28;;;;;;;;;44.25;40.00;7.90;30.20;;;;;;4958164;28;8879;-61
2022/03/20 03:27:54;;;;;;;;;39.00;35.25;8.00;30.30;;;;;;4958218;28;8891;-61
2022/03/20 03:30:20;;;;;;;;;37.75;34.75;8.20;30.00;;;;;;4958088;28;8788;-61
2022/03/20 03:32:46;;;;;;;;;38.00;36.75;8.30;29.80;;;;;;4958116;28;8792;-60
2022/03/20 03:38:00;;;;;;;;;38.75;37.75;8.30;29.90;;;;;;4964090;28;8818;-60
2022/03/20 03:40:26;;;;;;;;;36.75;35.50;8.10;30.00;;;;;;4977490;28;9503;-61
2022/03/20 03:42:52;;;;;;;;;46.00;42.25;8.20;29.60;;;;;;4976833;28;8897;-61
2022/03/20 03:45:18;;;;;;;;;36.00;34.50;8.20;29.70;;;;;;4977465;28;8774;-61
2022/03/20 03:47:44;;;;;;;;;31.50;31.50;8.10;29.80;;;;;;4976923;28;8782;-61
2022/03/20 03:50:10;;;;;;;;;37.50;36.00;8.20;29.80;;;;;;4977100;28;8849;-61
2022/03/20 03:52:37;;;;;;;;;40.25;38.25;8.00;29.70;;;;;;4977280;28;8866;-60
2022/03/20 03:55:04;;;;;;;;;37.00;35.75;8.00;30.00;;;;;;4977023;28;8789;-61
2022/03/20 03:57:30;;;;;;;;;44.50;40.50;8.10;29.90;;;;;;4976956;28;8786;-61
2022/03/20 03:59:56;;;;;;;;;37.00;36.00;8.00;29.70;;;;;;4977116;28;8775;-61
2022/03/20 04:02:22;;;;;;;;;38.75;36.25;7.70;30.30;;;;;;4976838;28;9562;-60
2022/03/20 04:04:48;;;;;;;;;36.75;32.25;7.80;30.00;;;;;;4977077;28;8785;-61
2022/03/20 04:07:18;;;;;;;;;38.50;34.25;7.90;29.90;;;;;;4976925;28;8817;-60
2022/03/20 04:09:48;;;;;;;;;41.25;38.00;7.70;29.90;;;;;;4976798;28;8805;-61
2022/03/20 04:12:14;;;;;;;;;40.75;34.25;7.50;30.00;;;;;;4976756;28;8782;-61
2022/03/20 04:14:44;;;;;;;;;32.00;30.25;7.50;30.00;;;;;;4976862;28;8767;-61
2022/03/20 04:17:10;;;;;;;;;31.50;27.75;7.50;29.80;;;;;;4976599;28;8785;-60
2022/03/20 04:19:36;;;;;;;;;33.25;27.25;7.40;30.50;;;;;;4977064;28;8913;-61
2022/03/20 04:22:03;;;;;;;;;27.25;25.75;7.30;30.60;;;;;;4976452;28;8971;-60
2022/03/20 04:24:29;;;;;;;;;28.25;24.75;7.20;30.90;;;;;;4977035;28;8762;-61
2022/03/20 04:26:55;;;;;;;;;28.75;26.00;7.30;30.80;;;;;;4976350;28;9485;-61
2022/03/20 04:29:21;;;;;;;;;30.75;27.75;7.40;30.90;;;;;;4976416;28;8781;-60
2022/03/20 04:31:51;;;;;;;;;29.25;25.50;7.40;30.50;;;;;;4976340;28;8793;-60
2022/03/20 04:34:17;;;;;;;;;29.25;27.75;7.60;30.50;;;;;;4976305;28;8758;-60
2022/03/20 04:36:43;;;;;;;;;34.00;28.75;7.70;30.30;;;;;;4976440;28;8810;-60
2022/03/20 04:39:09;;;;;;;;;31.25;29.25;7.60;31.30;;;;;;4974456;28;8884;-62
2022/03/20 04:41:35;;;;;;;;;39.50;37.50;7.50;30.40;;;;;;4976105;28;8814;-62
2022/03/20 04:44:01;;;;;;;;;38.50;32.75;7.80;30.30;;;;;;4976155;28;8882;-62
2022/03/20 04:46:27;;;;;;;;;34.50;31.00;7.80;30.00;;;;;;4959473;28;9801;-61
2022/03/20 04:59:50;;;;;;;;;30.00;29.00;7.50;30.00;;;;;;4975983;28;8738;-60
2022/03/20 05:02:16;;;;;;;;;28.50;28.50;7.60;29.80;;;;;;4975759;28;8801;-61
2022/03/20 05:04:42;;;;;;;;;28.25;28.25;7.70;30.00;;;;;;4975898;28;8766;-61
2022/03/20 05:07:08;;;;;;;;;39.00;34.25;7.90;30.00;;;;;;4975948;28;8849;-60
2022/03/20 05:15:10;;;;;;;;;43.50;39.50;8.10;29.90;;;;;;4975803;28;8735;-60
2022/03/20 05:17:36;;;;;;;;;25.25;25.00;8.10;29.70;;;;;;4975683;28;8801;-61
2022/03/20 05:20:05;;;;;;;;;33.00;29.00;8.20;29.70;;;;;;4975666;28;8754;-61
2022/03/20 05:22:34;;;;;;;;;37.00;33.50;7.80;29.90;;;;;;4975776;28;8852;-61
2022/03/20 05:25:05;;;;;;;;;37.00;36.25;7.80;30.00;;;;;;4975524;28;8940;-61
2022/03/20 05:27:30;;;;;;;;;35.25;34.75;7.70;30.00;;;;;;4975368;28;8805;-61
2022/03/20 05:29:56;;;;;;;;;40.00;37.00;7.60;30.30;;;;;;4975812;28;8790;-61
2022/03/20 05:32:23;;;;;;;;;51.25;46.00;7.70;30.20;;;;;;4975533;28;8755;-61
2022/03/20 05:34:49;;;;;;;;;52.50;41.75;7.60;30.30;;;;;;4975441;28;8790;-61
2022/03/20 05:37:14;;;;;;;;;50.50;42.75;7.20;30.60;;;;;;4975510;28;8809;-62
2022/03/20 05:39:40;;;;;;;;;50.00;41.50;7.20;31.00;;;;;;4967146;28;8801;-61
2022/03/20 05:42:06;;;;;;;;;46.50;39.50;7.10;31.00;;;;;;4966787;28;8806;-61
2022/03/20 05:44:35;;;;;;;;;36.50;35.75;7.30;31.00;;;;;;4962862;28;8780;-61
2022/03/20 05:47:02;;;;;;;;;47.25;42.00;7.40;30.50;;;;;;4968586;28;8779;-61
2022/03/20 05:49:27;;;;;;;;;60.75;50.75;7.60;30.60;;;;;;4971721;28;8783;-61
2022/03/20 05:51:54;;;;;;;;;45.00;42.00;7.60;30.60;;;;;;4958160;28;8868;-61
2022/03/20 05:54:20;;;;;;;;;60.50;46.75;7.60;30.50;;;;;;4956788;28;9439;-61
2022/03/20 05:59:33;;;;;;;;;63.50;52.00;7.80;30.60;;;;;;4956118;29;8737;-62
2022/03/20 06:01:59;;;;;;;;;52.75;47.50;7.70;30.90;;;;;;4955892;29;8797;-62
2022/03/20 06:04:25;;;;;;;;;49.75;43.00;7.40;30.70;;;;;;4956945;28;8784;-62
2022/03/20 06:06:50;;;;;;;;;43.25;39.75;7.60;30.60;;;;;;4970891;28;8876;-61
2022/03/20 06:09:16;;;;;;;;;39.00;36.00;7.50;31.00;;;;;;4979240;28;8794;-61
2022/03/20 06:11:43;;;;;;;;;47.25;42.75;7.50;31.30;;;;;;4979164;28;8754;-62
2022/03/20 06:14:09;;;;;;;;;43.75;39.00;7.60;30.70;;;;;;4979020;28;8776;-61
2022/03/20 06:16:35;;;;;;;;;52.00;45.25;7.30;31.20;;;;;;4978848;28;8771;-61
2022/03/20 06:19:03;;;;;;;;;52.00;43.00;7.40;31.10;;;;;;4978791;28;8914;-61
2022/03/20 06:21:29;;;;;;;;;49.00;41.25;7.10;31.40;;;;;;4978637;28;8912;-61
2022/03/20 06:23:55;;;;;;;;;67.00;55.00;7.20;32.00;;;;;;4978654;28;8925;-61
2022/03/20 06:26:24;;;;;;;;;83.50;65.50;7.40;31.60;;;;;;4978677;28;8789;-61
2022/03/20 06:28:53;;;;;;;;;97.75;76.75;6.80;33.20;;;;;;4965095;28;8796;-61
2022/03/20 06:31:19;;;;;;;;;78.75;61.00;7.00;31.70;;;;;;4959689;28;8780;-61
2022/03/20 06:33:46;;;;;;;;;70.75;57.25;7.30;31.50;;;;;;4959412;28;8788;-61
2022/03/20 06:36:13;;;;;;;;;84.00;63.25;7.40;31.10;;;;;;4959247;28;8797;-61
2022/03/20 06:38:39;;;;;;;;;68.75;54.25;7.50;31.00;;;;;;4958933;28;8808;-61
2022/03/20 06:41:06;;;;;;;;;66.75;54.50;7.40;30.90;;;;;;4958894;28;8826;-61
2022/03/20 06:43:37;;;;;;;;;50.75;43.25;7.70;30.00;;;;;;4958811;28;8772;-61
2022/03/20 06:46:06;;;;;;;;;59.75;48.00;7.90;29.60;;;;;;4958826;28;8765;-61
2022/03/20 06:48:33;;;;;;;;;37.75;35.25;7.80;29.90;;;;;;4959149;28;8807;-61
2022/03/20 06:50:59;;;;;;;;;60.75;51.50;7.60;30.50;;;;;;4959391;28;8765;-61
2022/03/20 06:53:25;;;;;;;;;45.00;41.50;7.40;30.30;;;;;;4958795;28;8769;-61
2022/03/20 06:55:51;;;;;;;;;38.00;37.25;7.30;31.00;;;;;;4959036;28;8847;-61
2022/03/20 06:58:18;;;;;;;;;27.25;25.25;7.50;30.90;;;;;;4958962;28;9419;-61
2022/03/20 07:00:46;;;;;;;;;29.75;29.75;7.70;30.40;;;;;;4958628;28;8777;-61
2022/03/20 07:03:12;;;;;;;;;27.00;26.75;7.60;30.30;;;;;;4941720;28;8785;-61
2022/03/20 07:05:41;;;;;;;;;39.75;37.75;7.80;30.30;;;;;;4958637;28;8773;-61
2022/03/20 07:08:08;;;;;;;;;43.50;41.75;7.90;30.10;;;;;;4958985;28;8820;-61
2022/03/20 07:10:35;;;;;;;;;33.50;30.00;8.00;30.20;;;;;;4958738;28;8777;-61
2022/03/20 07:15:48;;;;;;;;;32.50;30.00;8.40;29.60;;;;;;4957808;28;8761;-61
2022/03/20 07:18:17;;;;;;;;;31.50;29.25;8.30;29.60;;;;;;4958643;28;8769;-61
2022/03/20 07:20:44;;;;;;;;;24.00;21.00;8.40;28.90;;;;;;4958369;28;8768;-62
2022/03/20 07:23:11;;;;;;;;;25.00;23.25;8.40;28.90;;;;;;4958527;28;8811;-62
2022/03/20 07:31:08;;;;;;;;;26.75;24.50;8.10;28.80;;;;;;4958173;28;8744;-61
2022/03/20 07:33:34;;;;;;;;;30.00;24.00;8.10;29.00;;;;;;4958030;28;8791;-61
2022/03/20 07:36:01;;;;;;;;;24.50;24.50;7.90;28.70;;;;;;4958001;28;8781;-61
2022/03/20 07:38:27;;;;;;;;;25.25;22.50;7.90;29.00;;;;;;4957840;28;8816;-61
2022/03/20 07:40:54;;;;;;;;;26.50;26.00;8.10;29.00;;;;;;4957927;28;8776;-61
2022/03/20 07:43:20;;;;;;;;;28.00;25.75;8.00;28.80;;;;;;4958175;28;8776;-61
2022/03/20 07:45:46;;;;;;;;;29.50;27.00;8.20;28.70;;;;;;4957875;28;8800;-61
2022/03/20 07:48:12;;;;;;;;;24.50;22.75;8.30;28.70;;;;;;4958154;28;8780;-62
2022/03/20 07:50:40;;;;;;;;;28.50;28.00;8.30;28.10;;;;;;4975538;28;9459;-61
2022/03/20 07:53:06;;;;;;;;;32.00;31.75;8.10;28.90;;;;;;4977279;28;8794;-61
2022/03/20 07:55:34;;;;;;;;;29.75;27.00;8.10;28.90;;;;;;4977039;28;8813;-61
2022/03/20 07:58:01;;;;;;;;;34.00;30.00;8.10;28.90;;;;;;4977250;28;8770;-61
2022/03/20 08:00:27;;;;;;;;;31.25;30.00;8.60;28.40;;;;;;4976948;28;8762;-61
2022/03/20 08:02:53;;;;;;;;;60.50;43.25;8.50;28.60;;;;;;4959673;28;9744;-61
2022/03/20 08:05:20;;;;;;;;;31.75;30.25;8.40;28.60;;;;;;4976971;28;8848;-61
2022/03/20 08:07:46;;;;;;;;;31.00;30.00;8.50;28.10;;;;;;4977116;28;8886;-61
2022/03/20 08:10:13;;;;;;;;;29.00;27.50;8.60;28.40;;;;;;4976728;28;8782;-61
2022/03/20 08:12:39;;;;;;;;;33.00;28.00;8.70;27.80;;;;;;4976718;28;8770;-61
2022/03/20 08:15:06;;;;;;;;;27.50;25.50;9.00;27.20;;;;;;4976572;28;8815;-61
2022/03/20 08:17:41;;;;;;;;;33.25;29.00;8.80;27.10;;;;;;4976828;28;9463;-62
2022/03/20 08:20:07;;;;;;;;;25.00;25.00;8.40;27.40;;;;;;4976830;28;8793;-61
2022/03/20 08:22:33;;;;;;;;;24.25;24.25;8.10;28.00;;;;;;4976359;28;8813;-62
2022/03/20 08:24:59;;;;;;;;;30.50;30.00;8.70;28.00;;;;;;4976330;28;8782;-62
2022/03/20 08:27:25;;;;;;;;;30.50;27.00;9.00;27.20;;;;;;4975772;28;8794;-61
2022/03/20 08:29:51;;;;;;;;;17.50;15.00;8.60;27.20;;;;;;4976071;28;8778;-62
2022/03/20 08:32:19;;;;;;;;;18.00;18.00;8.60;27.30;;;;;;4976596;28;9437;-62
2022/03/20 08:34:45;;;;;;;;;28.50;26.50;8.50;28.90;;;;;;4971219;28;8890;-61
2022/03/20 08:37:10;;;;;;;;;27.25;24.00;8.90;28.40;;;;;;4965067;28;9635;-62
2022/03/20 08:39:36;;;;;;;;;31.00;29.25;9.20;28.70;;;;;;4966347;28;8813;-62
2022/03/20 08:42:02;;;;;;;;;34.25;30.00;9.10;27.80;;;;;;4976219;28;8909;-62
2022/03/20 08:44:28;;;;;;;;;36.75;34.75;9.10;27.30;;;;;;4976067;28;8813;-58
2022/03/20 08:46:54;;;;;;;;;33.50;33.00;9.30;27.30;;;;;;4969819;28;8766;-58
2022/03/20 08:49:19;;;;;;;;;22.50;20.50;9.30;27.30;;;;;;4976068;28;8766;-60
2022/03/20 08:51:46;;;;;;;;;25.75;25.75;9.10;27.00;;;;;;4972611;28;8798;-60
2022/03/20 08:54:12;;;;;;;;;28.00;28.00;9.30;27.10;;;;;;4976106;28;8798;-59
2022/03/20 08:56:39;;;;;;;;;32.50;29.00;9.40;26.80;;;;;;4976153;28;9459;-57
2022/03/20 08:59:08;;;;;;;;;36.25;29.25;9.80;26.80;;;;;;4972885;28;8805;-58
2022/03/20 09:01:35;;;;;;;;;28.00;24.75;9.70;26.30;;;;;;4975837;28;8786;-59
2022/03/20 09:04:01;;;;;;;;;30.50;27.00;9.10;26.80;;;;;;4975743;28;8898;-58
2022/03/20 09:06:28;;;;;;;;;30.25;29.25;8.90;27.20;;;;;;4972392;28;8806;-60
2022/03/20 09:08:54;;;;;;;;;33.25;29.75;9.20;27.30;;;;;;4975592;28;8793;-64
2022/03/20 09:11:23;;;;;;;;;25.25;25.25;9.50;27.70;;;;;;4975476;28;8775;-57
2022/03/20 09:13:49;;;;;;;;;26.00;24.00;9.60;27.40;;;;;;4975244;28;8770;-58
2022/03/20 09:19:07;;;;;;;;;33.50;32.00;9.40;27.10;;;;;;4975630;28;8747;-57
2022/03/20 09:21:38;;;;;;;;;22.25;22.00;9.60;27.40;;;;;;4975554;28;8810;-57
2022/03/20 09:24:05;;;;;;;;;25.25;24.25;9.80;26.80;;;;;;4975662;28;8767;-58
2022/03/20 09:26:32;;;;;;;;;32.75;31.50;10.00;26.80;;;;;;4975225;28;8751;-59
2022/03/20 09:28:58;;;;;;;;;28.75;27.25;10.30;26.80;;;;;;4975720;28;8763;-58
2022/03/20 09:31:26;;;;;;;;;28.50;26.75;10.50;27.10;;;;;;4975397;28;8834;-59
2022/03/20 09:33:53;;;;;;;;;21.75;19.75;10.60;27.90;;;;;;4975351;28;8802;-60
2022/03/20 09:36:19;;;;;;;;;32.00;30.75;10.50;29.30;;;;;;4975340;28;8806;-62
2022/03/20 09:38:45;;;;;;;;;31.50;30.25;10.50;28.90;;;;;;4975039;28;8842;-60
2022/03/20 09:41:14;;;;;;;;;25.50;22.75;11.10;28.90;;;;;;4979268;28;8802;-60
2022/03/20 09:43:43;;;;;;;;;31.75;29.00;11.50;28.70;;;;;;4979390;28;8786;-60
2022/03/20 09:46:09;;;;;;;;;26.50;25.50;11.60;28.40;;;;;;4979318;28;8777;-59
2022/03/20 09:48:35;;;;;;;;;31.00;30.50;11.70;27.60;;;;;;4979531;28;8762;-61
2022/03/20 09:51:05;;;;;;;;;36.00;35.00;11.80;26.30;;;;;;4979155;28;8865;-60
2022/03/20 09:53:31;;;;;;;;;38.25;31.50;11.60;26.10;;;;;;4979528;28;8767;-61
2022/03/20 09:55:58;;;;;;;;;35.00;33.25;11.60;26.20;;;;;;4979381;28;9452;-60
2022/03/20 09:58:26;;;;;;;;;34.25;31.00;11.40;25.70;;;;;;4979007;28;8794;-60
2022/03/20 10:00:53;;;;;;;;;28.00;26.50;11.40;25.60;;;;;;4979015;28;8790;-61
2022/03/20 10:03:21;;;;;;;;;32.50;31.75;11.20;25.70;;;;;;4979073;28;8774;-62
2022/03/20 10:06:09;;;;;;;;;22.00;22.00;11.70;26.60;;;;;;4978833;28;8782;-61
2022/03/20 10:08:35;;;;;;;;;28.75;26.25;11.30;25.20;;;;;;4979278;28;8920;-62
2022/03/20 10:11:17;;;;;;;;;28.75;27.00;11.50;26.50;;;;;;4978988;28;8758;-59
2022/03/20 10:14:09;;;;;;;;;29.00;25.75;11.40;25.10;;;;;;4979023;28;8845;-58
2022/03/20 10:16:42;;;;;;;;;23.25;21.50;11.70;25.40;;;;;;4979085;28;9437;-60
2022/03/20 10:19:23;;;;;;;;;22.00;19.25;11.80;25.30;;;;;;4978813;28;8805;-63
2022/03/20 10:21:54;;;;;;;;;31.75;28.75;11.90;26.30;;;;;;4978736;28;8794;-61
2022/03/20 10:24:25;;;;;;;;;31.50;29.25;12.10;24.80;;;;;;4978826;28;8835;-57
2022/03/20 10:27:00;;;;;;;;;22.25;20.00;12.30;25.30;;;;;;4978601;28;8751;-59
2022/03/20 10:29:28;;;;;;;;;26.00;26.00;12.10;24.30;;;;;;4978660;28;8774;-59
2022/03/20 10:31:56;;;;;;;;;29.50;26.75;12.40;24.80;;;;;;4978636;28;8759;-61
2022/03/20 10:34:25;;;;;;;;;30.25;25.00;12.80;23.70;;;;;;4978563;28;8778;-62
2022/03/20 10:36:52;;;;;;;;;35.75;32.75;12.90;23.50;;;;;;4978517;28;8815;-61
2022/03/20 10:39:25;;;;;;;;;32.00;30.75;13.00;24.60;;;;;;4978215;28;8802;-61
2022/03/20 10:41:58;;;;;;;;;24.75;24.25;13.30;23.80;;;;;;4978237;28;8802;-63
2022/03/20 10:44:26;;;;;;;;;31.75;28.00;13.30;23.10;;;;;;4978595;28;8774;-62
2022/03/20 10:47:16;;;;;;;;;25.25;23.75;13.10;23.30;;;;;;4978536;28;8774;-63
2022/03/20 10:50:07;;;;;;;;;33.00;31.00;13.50;24.10;;;;;;4961282;28;8790;-64
2022/03/20 10:52:36;;;;;;;;;32.50;29.75;14.00;23.20;;;;;;4977259;28;8771;-65
2022/03/20 10:55:10;;;;;;;;;30.75;30.00;13.60;23.60;;;;;;4978209;28;8771;-62
2022/03/20 10:57:36;;;;;;;;;32.50;31.25;14.00;23.20;;;;;;4978120;28;8763;-61
2022/03/20 11:00:08;;;;;;;;;32.75;28.75;14.40;22.30;;;;;;4978327;28;8750;-61
2022/03/20 11:02:37;;;;;;;;;29.25;26.75;14.20;23.10;;;;;;4978275;28;8813;-61
2022/03/20 11:05:04;;;;;;;;;27.75;26.25;13.80;23.40;;;;;;4977961;28;8794;-59
2022/03/20 11:07:30;;;;;;;;;26.25;26.25;13.80;23.20;;;;;;4978106;28;8794;-62
2022/03/20 11:09:56;;;;;;;;;26.50;25.75;14.00;22.60;;;;;;4977691;28;8904;-66
2022/03/20 11:12:33;;;;;;;;;22.00;21.50;14.40;22.50;;;;;;4977878;28;8778;-63
2022/03/20 11:15:04;;;;;;;;;27.00;25.33;15.30;22.20;;;;;;4978084;28;8778;-64
2022/03/20 11:17:37;;;;;;;;;30.00;29.00;15.40;21.40;;;;;;4977795;28;8782;-62
2022/03/20 11:20:03;;;;;;;;;32.67;26.00;14.90;21.60;;;;;;4977773;28;8781;-62
2022/03/20 11:22:30;;;;;;;;;22.33;19.33;14.40;22.10;;;;;;4977597;28;8849;-64
2022/03/20 11:24:56;;;;;;;;;23.67;23.67;14.80;22.10;;;;;;4977583;28;8797;-66
2022/03/20 11:27:26;;;;;;;;;17.33;17.00;15.00;20.80;;;;;;4977637;28;8779;-66
2022/03/20 11:30:01;;;;;;;;;18.00;18.00;15.20;20.60;;;;;;4977709;28;8770;-69
2022/03/20 11:32:28;;;;;;;;;23.33;23.33;15.40;21.80;;;;;;4977352;28;8778;-63
2022/03/20 11:34:55;;;;;;;;;19.00;17.67;15.50;20.60;;;;;;4977234;28;8778;-63
2022/03/20 11:37:21;;;;;;;;;20.67;19.33;15.70;20.90;;;;;;4973857;28;9479;-61
2022/03/20 11:40:10;;;;;;;;;22.33;21.00;17.90;18.40;;;;;;4977097;28;8806;-65
2022/03/20 11:42:36;;;;;;;;;24.33;22.33;22.10;15.70;;;;;;4964669;28;8826;-63
2022/03/20 11:45:05;;;;;;;;;25.00;24.33;26.40;14.10;;;;;;4977467;28;8758;-62
2022/03/20 11:47:41;;;;;;;;;16.00;16.00;28.60;13.10;;;;;;4977420;28;8789;-60
2022/03/20 11:50:13;;;;;;;;;26.00;26.00;28.70;12.10;;;;;;4976980;28;11461;-68
2022/03/20 11:52:58;;;;;;;;;28.33;28.33;29.90;11.70;;;;;;4977310;28;9642;-72
2022/03/20 11:55:49;;;;;;;;;22.33;22.33;30.30;11.80;;;;;;4973655;28;8759;-59
2022/03/20 11:58:20;;;;;;;;;23.67;23.00;32.00;10.70;;;;;;4975793;28;12111;-61
2022/03/20 12:01:04;;;;;;;;;23.33;23.33;34.30;10.40;;;;;;4975634;28;11563;-59
2022/03/20 12:03:45;;;;;;;;;21.33;21.33;32.50;10.20;;;;;;4974220;28;11417;-58
2022/03/20 12:06:16;;;;;;;;;22.67;22.67;31.70;10.20;;;;;;4966067;28;11482;-61
2022/03/20 12:09:02;;;;;;;;;20.33;20.33;32.10;10.80;;;;;;4975707;28;11437;-60
2022/03/20 12:11:40;;;;;;;;;24.33;24.33;33.00;10.50;;;;;;4971897;28;11451;-62
2022/03/20 12:14:21;;;;;;;;;18.25;18.25;31.70;10.30;;;;;;4973958;28;12156;-59
2022/03/20 12:16:52;;;;;;;;;17.00;17.00;30.30;10.90;;;;;;4967218;28;11496;-60
2022/03/20 12:19:22;;;;;;;;;18.00;18.00;31.60;10.30;;;;;;4961457;28;11519;-61
2022/03/20 12:21:56;;;;;;;;;22.00;22.00;32.30;9.90;;;;;;4957238;28;11504;-62
2022/03/20 12:24:37;;;;;;;;;18.33;18.33;32.40;10.20;;;;;;4956764;28;11590;-61
2022/03/20 12:27:25;;;;;;;;;25.67;25.67;33.10;9.50;;;;;;4956978;28;11445;-61
2022/03/20 12:29:57;;;;;;;;;16.75;16.75;33.10;9.90;;;;;;4957140;28;11458;-61
2022/03/20 12:32:24;;;;;;;;;20.00;20.00;33.10;9.90;;;;;;4956887;28;11446;-61
2022/03/20 12:34:56;;;;;;;;;19.25;19.25;33.70;9.90;;;;;;4956791;28;11579;-61
2022/03/20 12:37:34;;;;;;;;;20.67;20.67;32.30;9.80;;;;;;4957052;28;11492;-61
2022/03/20 12:40:02;;;;;;;;;29.67;29.67;33.70;10.00;;;;;;4957032;28;11577;-62
2022/03/20 12:42:29;;;;;;;;;46.00;40.00;33.60;9.30;;;;;;4956982;28;8799;-61
2022/03/20 12:44:55;;;;;;;;;43.00;37.00;34.30;9.20;;;;;;4956738;28;8800;-61
2022/03/20 12:47:26;;;;;;;;;79.50;76.00;33.10;9.50;;;;;;4957012;28;8807;-61
2022/03/20 12:50:00;;;;;;;;;50.67;43.33;33.40;9.10;;;;;;4957066;28;8875;-60
2022/03/20 12:52:29;;;;;;;;;26.67;26.67;32.50;9.40;;;;;;4956816;28;8930;-61
2022/03/20 12:54:58;;;;;;;;;17.75;17.75;32.70;9.40;;;;;;4956333;28;11564;-61
2022/03/20 12:57:41;;;;;;;;;17.50;17.50;31.40;9.40;;;;;;4956763;28;11447;-61
2022/03/20 13:00:09;;;;;;;;;3.33;3.33;30.30;9.60;;;;;;4956536;28;11465;-59
2022/03/20 13:03:08;;;;;;;;;18.33;18.33;31.00;9.90;;;;;;4956306;28;11854;-61
2022/03/20 13:05:45;;;;;;;;;19.67;19.67;31.70;10.10;;;;;;4956296;28;11469;-60
2022/03/20 13:08:22;;;;;;;;;21.67;21.67;32.40;9.40;;;;;;4956381;28;11459;-61
2022/03/20 13:10:56;;;;;;;;;22.67;22.67;32.90;9.80;;;;;;4956436;28;11480;-61
2022/03/20 13:13:33;;;;;;;;;26.67;26.67;33.30;9.90;;;;;;4955973;28;11473;-62
2022/03/20 13:16:00;;;;;;;;;17.67;17.67;32.30;8.90;;;;;;4956257;28;8801;-63
2022/03/20 13:18:29;;;;;;;;;24.00;24.00;33.80;9.40;;;;;;4956563;28;8795;-62
2022/03/20 13:20:55;;;;;;;;;50.00;43.00;34.30;9.50;;;;;;4956345;28;8867;-62
2022/03/20 13:23:23;;;;;;;;;40.33;36.67;33.80;9.20;;;;;;4956179;28;8934;-61
2022/03/20 13:25:51;;;;;;;;;21.33;21.33;33.50;9.00;;;;;;4956467;28;9446;-62
2022/03/20 13:28:33;;;;;;;;;23.00;23.00;33.00;8.90;;;;;;4956049;28;11463;-62
2022/03/20 13:31:20;;;;;;;;;22.00;22.00;33.20;9.40;;;;;;4956368;28;8776;-61